createdAt,value
2022-11-04T00:02:16.814Z,11.10
2022-11-04T00:04:46.440Z,11.10
2022-11-04T00:07:28.394Z,11.10
2022-11-04T00:09:56.492Z,11.20
2022-11-04T00:12:26.168Z,11.20
2022-11-04T00:14:54.281Z,11.20
2022-11-04T00:17:22.862Z,11.20
2022-11-04T00:20:11.098Z,11.20
2022-11-04T00:22:57.627Z,11.30
2022-11-04T00:25:43.150Z,11.30
2022-11-04T00:28:30.715Z,11.30
2022-11-04T00:31:21.010Z,11.40
2022-11-04T00:33:48.899Z,11.40
2022-11-04T00:36:18.386Z,11.40
2022-11-04T00:38:47.021Z,11.40
2022-11-04T00:41:27.994Z,11.40
2022-11-04T00:43:58.488Z,11.50
2022-11-04T00:46:27.046Z,11.50
2022-11-04T00:48:55.458Z,11.50
2022-11-04T00:51:25.136Z,11.60
2022-11-04T00:53:53.735Z,11.70
2022-11-04T00:56:21.881Z,11.80
2022-11-04T00:58:50.690Z,11.80
2022-11-04T01:01:20.370Z,11.90
2022-11-04T01:03:49.970Z,12.00
2022-11-04T01:06:19.671Z,12.00
2022-11-04T01:08:49.570Z,12.00
2022-11-04T01:11:17.750Z,12.00
2022-11-04T01:13:46.097Z,12.00
2022-11-04T01:16:14.496Z,12.00
2022-11-04T01:18:43.107Z,12.00
2022-11-04T01:21:13.865Z,12.00
2022-11-04T01:23:43.149Z,12.00
2022-11-04T01:26:15.348Z,12.00
2022-11-04T01:28:43.465Z,12.00
2022-11-04T01:31:14.152Z,12.00
2022-11-04T01:33:42.670Z,12.00
2022-11-04T01:36:11.854Z,12.00
2022-11-04T01:38:40.171Z,11.90
2022-11-04T01:41:10.069Z,11.90
2022-11-04T01:43:49.378Z,11.80
2022-11-04T01:46:27.163Z,11.80
2022-11-04T01:48:59.298Z,11.70
2022-11-04T01:51:29.660Z,11.70
2022-11-04T01:53:58.087Z,11.70
2022-11-04T01:56:27.903Z,11.70
2022-11-04T01:59:02.011Z,11.80
2022-11-04T02:01:30.786Z,11.80
2022-11-04T02:04:21.999Z,11.80
2022-11-04T02:06:52.281Z,11.80
2022-11-04T02:09:21.973Z,11.80
2022-11-04T02:12:07.742Z,11.70
2022-11-04T02:14:37.848Z,11.70
2022-11-04T02:17:16.770Z,11.70
2022-11-04T02:20:00.771Z,11.60
2022-11-04T02:22:59.050Z,11.60
2022-11-04T02:25:52.831Z,11.50
2022-11-04T02:28:51.970Z,11.30
2022-11-04T02:31:27.558Z,11.30
2022-11-04T02:34:05.560Z,11.20
2022-11-04T02:36:43.211Z,11.10
2022-11-04T02:39:23.926Z,11.10
2022-11-04T02:41:57.830Z,11.10
2022-11-04T02:44:34.404Z,11.10
2022-11-04T02:47:07.522Z,11.10
2022-11-04T02:49:40.600Z,11.00
2022-11-04T02:52:11.328Z,11.00
2022-11-04T02:54:43.309Z,10.90
2022-11-04T02:57:16.302Z,11.00
2022-11-04T02:59:49.561Z,11.00
2022-11-04T03:02:26.396Z,11.00
2022-11-04T03:04:56.603Z,11.00
2022-11-04T03:07:30.178Z,11.00
2022-11-04T03:10:06.285Z,11.00
2022-11-04T03:12:41.143Z,11.00
2022-11-04T03:15:16.012Z,11.00
2022-11-04T03:17:51.571Z,10.90
2022-11-04T03:20:25.612Z,10.90
2022-11-04T03:22:55.759Z,10.90
2022-11-04T03:25:28.546Z,10.90
2022-11-04T03:28:03.429Z,10.90
2022-11-04T03:30:37.397Z,10.90
2022-11-04T03:33:13.518Z,10.80
2022-11-04T03:35:42.198Z,10.80
2022-11-04T03:38:10.296Z,10.80
2022-11-04T03:40:38.404Z,10.80
2022-11-04T03:43:12.017Z,10.80
2022-11-04T03:45:41.800Z,10.80
2022-11-04T03:48:12.291Z,10.80
2022-11-04T03:50:43.125Z,10.80
2022-11-04T03:53:13.674Z,10.80
2022-11-04T03:55:51.959Z,10.80
2022-11-04T03:58:31.414Z,10.80
2022-11-04T04:01:07.563Z,10.80
2022-11-04T04:03:43.837Z,10.80
2022-11-04T04:06:17.167Z,10.80
2022-11-04T04:08:51.167Z,10.70
2022-11-04T04:11:24.347Z,10.70
2022-11-04T04:13:58.037Z,10.70
2022-11-04T04:16:32.171Z,10.70
2022-11-04T04:19:06.696Z,10.70
2022-11-04T04:21:41.358Z,10.70
2022-11-04T04:24:29.385Z,10.70
2022-11-04T04:27:16.451Z,10.70
2022-11-04T04:29:45.728Z,10.70
2022-11-04T04:32:15.148Z,10.70
2022-11-04T04:34:45.259Z,10.70
2022-11-04T04:37:20.223Z,10.70
2022-11-04T04:40:09.092Z,10.60
2022-11-04T04:42:55.910Z,10.60
2022-11-04T04:45:28.460Z,10.60
2022-11-04T04:47:57.500Z,10.70
2022-11-04T04:50:29.754Z,10.70
2022-11-04T04:53:00.478Z,10.70
2022-11-04T04:55:30.033Z,10.60
2022-11-04T04:57:58.235Z,10.60
2022-11-04T05:00:27.533Z,10.60
2022-11-04T05:02:55.730Z,10.60
2022-11-04T05:05:24.670Z,10.60
2022-11-04T05:07:54.278Z,10.60
2022-11-04T05:10:22.496Z,10.60
2022-11-04T05:13:08.149Z,10.60
2022-11-04T05:15:39.110Z,10.60
2022-11-04T05:18:12.989Z,10.50
2022-11-04T05:20:40.997Z,10.50
2022-11-04T05:23:12.275Z,10.60
2022-11-04T05:25:40.837Z,10.60
2022-11-04T05:28:10.473Z,10.60
2022-11-04T05:30:38.938Z,10.60
2022-11-04T05:33:08.106Z,10.60
2022-11-04T05:35:36.518Z,10.70
2022-11-04T05:38:04.661Z,10.70
2022-11-04T05:40:34.034Z,10.70
2022-11-04T05:43:02.359Z,10.70
2022-11-04T05:45:30.859Z,10.70
2022-11-04T05:48:00.281Z,10.60
2022-11-04T05:50:29.736Z,10.70
2022-11-04T05:52:59.093Z,10.70
2022-11-04T05:55:27.558Z,10.70
2022-11-04T05:57:57.989Z,10.70
2022-11-04T06:00:27.051Z,10.70
2022-11-04T06:02:57.247Z,10.70
2022-11-04T06:05:28.075Z,10.70
2022-11-04T06:07:57.426Z,10.70
2022-11-04T06:10:26.203Z,10.70
2022-11-04T06:12:54.261Z,10.70
2022-11-04T06:15:23.665Z,10.70
2022-11-04T06:17:51.849Z,10.70
2022-11-04T06:20:19.900Z,10.80
2022-11-04T06:22:47.932Z,10.80
2022-11-04T06:25:16.558Z,10.80
2022-11-04T06:27:44.603Z,10.80
2022-11-04T06:30:13.616Z,10.80
2022-11-04T06:32:43.115Z,10.80
2022-11-04T06:35:11.185Z,10.80
2022-11-04T06:37:39.351Z,10.90
2022-11-04T06:40:09.160Z,10.90
2022-11-04T06:42:37.280Z,10.90
2022-11-04T06:45:06.156Z,10.80
2022-11-04T06:47:34.196Z,10.80
2022-11-04T06:50:27.591Z,10.80
2022-11-04T06:52:55.654Z,10.80
2022-11-04T06:55:24.707Z,10.80
2022-11-04T06:57:52.919Z,10.80
2022-11-04T07:00:21.213Z,10.80
2022-11-04T07:02:49.432Z,10.80
2022-11-04T07:05:19.119Z,10.70
2022-11-04T07:07:47.392Z,10.70
2022-11-04T07:10:15.715Z,10.70
2022-11-04T07:12:43.782Z,10.70
2022-11-04T07:15:12.954Z,10.70
2022-11-04T07:17:41.067Z,10.80
2022-11-04T07:20:13.202Z,10.80
2022-11-04T07:22:42.613Z,10.80
2022-11-04T07:25:10.915Z,10.80
2022-11-04T07:27:39.524Z,10.70
2022-11-04T07:30:09.797Z,10.80
2022-11-04T07:32:37.961Z,10.80
2022-11-04T07:35:06.981Z,10.70
2022-11-04T07:37:35.164Z,10.60
2022-11-04T07:40:06.230Z,10.60
2022-11-04T07:42:34.303Z,10.60
2022-11-04T07:45:08.723Z,10.70
2022-11-04T07:47:36.885Z,10.70
2022-11-04T07:50:10.928Z,10.70
2022-11-04T07:52:40.217Z,10.70
2022-11-04T07:55:11.053Z,10.80
2022-11-04T07:57:39.155Z,10.80
2022-11-04T08:00:08.220Z,10.70
2022-11-04T08:02:40.492Z,10.70
2022-11-04T08:05:09.416Z,10.80
2022-11-04T08:07:37.476Z,10.70
2022-11-04T08:10:06.329Z,10.80
2022-11-04T08:12:35.791Z,10.80
2022-11-04T08:15:03.918Z,10.80
2022-11-04T08:17:31.991Z,10.80
2022-11-04T08:20:00.050Z,10.80
2022-11-04T08:22:32.793Z,10.70
2022-11-04T08:25:01.209Z,10.70
2022-11-04T08:27:29.568Z,10.60
2022-11-04T08:29:58.949Z,10.60
2022-11-04T08:32:27.031Z,10.50
2022-11-04T08:34:55.156Z,10.50
2022-11-04T08:37:23.265Z,10.50
2022-11-04T08:39:51.463Z,10.50
2022-11-04T08:42:19.499Z,10.40
2022-11-04T08:44:47.602Z,10.30
2022-11-04T08:47:17.025Z,10.30
2022-11-04T08:49:45.291Z,10.30
2022-11-04T08:52:13.343Z,10.20
2022-11-04T08:54:41.430Z,10.10
2022-11-04T08:57:10.108Z,10.20
2022-11-04T08:59:38.377Z,10.20
2022-11-04T09:02:06.629Z,10.10
2022-11-04T09:04:36.099Z,10.10
2022-11-04T09:07:08.259Z,10.20
2022-11-04T09:09:36.855Z,10.20
2022-11-04T09:12:05.198Z,10.30
2022-11-04T09:14:33.255Z,10.30
2022-11-04T09:17:02.035Z,10.40
2022-11-04T09:19:32.503Z,10.40
2022-11-04T09:22:02.042Z,10.30
2022-11-04T09:24:30.499Z,10.30
2022-11-04T09:26:58.579Z,10.30
2022-11-04T09:29:26.673Z,10.30
2022-11-04T09:31:54.855Z,10.40
2022-11-04T09:34:22.871Z,10.50
2022-11-04T09:36:51.016Z,10.60
2022-11-04T09:39:20.460Z,10.70
2022-11-04T09:41:57.482Z,10.80
2022-11-04T09:44:28.382Z,10.90
2022-11-04T09:47:01.536Z,11.00
2022-11-04T09:49:35.312Z,11.00
2022-11-04T09:52:07.735Z,11.10
2022-11-04T09:54:47.262Z,11.00
2022-11-04T09:57:19.533Z,11.00
2022-11-04T09:59:48.497Z,11.00
2022-11-04T10:02:38.413Z,11.10
2022-11-04T10:05:16.498Z,11.10
2022-11-04T10:08:03.855Z,11.10
2022-11-04T10:10:41.889Z,11.10
2022-11-04T10:13:21.157Z,11.10
2022-11-04T10:16:10.195Z,11.10
2022-11-04T10:18:55.941Z,11.10
2022-11-04T10:21:36.379Z,11.10
2022-11-04T10:24:17.192Z,11.10
2022-11-04T10:26:49.960Z,11.10
2022-11-04T10:29:29.575Z,11.00
2022-11-04T10:32:00.806Z,11.00
2022-11-04T10:34:35.988Z,11.10
2022-11-04T10:37:05.193Z,11.00
2022-11-04T10:39:38.329Z,10.90
2022-11-04T10:42:07.887Z,10.90
2022-11-04T10:44:38.045Z,10.90
2022-11-04T10:47:15.209Z,11.00
2022-11-04T10:50:27.059Z,11.00
2022-11-04T10:52:46.233Z,11.00
2022-11-04T10:55:23.146Z,11.00
2022-11-04T10:57:57.138Z,11.00
2022-11-04T11:00:40.179Z,11.00
2022-11-04T11:03:26.712Z,11.00
2022-11-04T11:05:56.128Z,11.00
2022-11-04T11:08:32.637Z,11.00
2022-11-04T11:11:02.207Z,11.00
2022-11-04T11:13:38.507Z,11.00
2022-11-04T11:16:13.030Z,11.00
2022-11-04T11:18:42.322Z,11.00
2022-11-04T11:21:14.132Z,11.00
2022-11-04T11:23:45.267Z,10.90
2022-11-04T11:26:17.440Z,10.90
2022-11-04T11:28:57.577Z,10.80
2022-11-04T11:31:27.580Z,10.80
2022-11-04T11:33:58.963Z,10.70
2022-11-04T11:36:32.498Z,10.70
2022-11-04T11:39:07.085Z,10.70
2022-11-04T11:41:42.501Z,10.70
2022-11-04T11:44:26.238Z,10.60
2022-11-04T11:46:56.656Z,10.60
2022-11-04T11:49:29.022Z,10.60
2022-11-04T11:52:17.608Z,10.60
2022-11-04T11:54:53.282Z,10.60
2022-11-04T11:57:33.902Z,10.60
2022-11-04T12:03:02.571Z,10.50
2022-11-04T12:11:46.574Z,10.40
2022-11-04T12:14:21.085Z,10.40
2022-11-04T12:16:59.444Z,10.40
2022-11-04T12:19:48.564Z,10.30
2022-11-04T12:22:27.202Z,10.30
2022-11-04T12:25:05.969Z,10.30
2022-11-04T12:27:41.085Z,10.30
2022-11-04T12:30:13.467Z,10.30
2022-11-04T12:33:01.310Z,10.30
2022-11-04T12:36:07.975Z,10.30
2022-11-04T12:38:47.388Z,10.30
2022-11-04T12:44:23.881Z,10.30
2022-11-04T12:47:03.565Z,10.30
2022-11-04T12:49:57.875Z,10.20
2022-11-04T12:52:42.654Z,10.20
2022-11-04T12:55:26.279Z,10.20
2022-11-04T12:58:03.472Z,10.20
2022-11-04T13:00:33.800Z,10.20
2022-11-04T13:03:07.505Z,10.20
2022-11-04T13:05:43.746Z,10.10
2022-11-04T13:08:20.260Z,10.10
2022-11-04T13:10:54.161Z,10.10
2022-11-04T13:13:27.722Z,10.10
2022-11-04T13:15:59.105Z,10.10
2022-11-04T13:18:31.603Z,10.10
2022-11-04T13:21:05.373Z,10.10
2022-11-04T13:23:41.569Z,10.20
2022-11-04T13:26:15.349Z,10.10
2022-11-04T13:28:45.826Z,10.10
2022-11-04T13:31:22.259Z,10.10
2022-11-04T13:33:58.131Z,10.10
2022-11-04T13:36:37.962Z,10.10
2022-11-04T13:39:13.437Z,10.10
2022-11-04T13:42:16.323Z,10.10
2022-11-04T13:44:46.544Z,10.10
2022-11-04T13:47:21.958Z,10.10
2022-11-04T13:49:53.943Z,10.10
2022-11-04T13:52:26.797Z,10.10
2022-11-04T13:54:58.775Z,10.00
2022-11-04T13:57:29.251Z,10.10
2022-11-04T14:00:23.618Z,10.00
2022-11-04T14:02:53.308Z,10.00
2022-11-04T14:05:58.078Z,10.00
2022-11-04T14:08:27.587Z,9.90
2022-11-04T14:11:12.637Z,9.90
2022-11-04T14:13:48.251Z,9.80
2022-11-04T14:16:45.557Z,9.80
2022-11-04T14:19:55.908Z,9.70
2022-11-04T14:22:30.703Z,9.70
2022-11-04T14:25:02.625Z,9.60
2022-11-04T14:27:40.233Z,9.60
2022-11-04T14:30:28.187Z,9.60
2022-11-04T14:33:00.030Z,9.60
2022-11-04T14:35:30.330Z,9.50
2022-11-04T14:38:04.162Z,9.50
2022-11-04T14:40:49.528Z,9.40
2022-11-04T14:43:32.196Z,9.40
2022-11-04T14:46:02.189Z,9.30
2022-11-04T14:48:31.167Z,9.30
2022-11-04T14:51:00.018Z,9.40
2022-11-04T14:53:34.168Z,9.40
2022-11-04T14:56:19.042Z,9.40
2022-11-04T14:58:58.116Z,9.40
2022-11-04T15:01:32.877Z,9.40
2022-11-04T15:04:13.371Z,9.40
2022-11-04T15:06:54.750Z,9.50
2022-11-04T15:09:25.806Z,9.40
2022-11-04T15:12:20.394Z,9.40
2022-11-04T15:14:48.588Z,9.40
2022-11-04T15:17:20.682Z,9.40
2022-11-04T15:19:52.270Z,9.40
2022-11-04T15:22:21.208Z,9.30
2022-11-04T15:24:50.592Z,9.30
2022-11-04T15:27:25.892Z,9.30
2022-11-04T15:29:58.195Z,9.30
2022-11-04T15:32:26.808Z,9.20
2022-11-04T15:34:56.447Z,9.20
2022-11-04T15:37:26.145Z,9.20
2022-11-04T15:39:57.556Z,9.20
2022-11-04T15:42:43.002Z,9.20
2022-11-04T15:45:37.092Z,9.20
2022-11-04T15:48:28.756Z,9.10
2022-11-04T15:51:13.478Z,9.10
2022-11-04T15:53:51.051Z,9.10
2022-11-04T15:56:23.316Z,9.10
2022-11-04T15:58:54.366Z,9.00
2022-11-04T16:01:22.887Z,9.10
2022-11-04T16:03:53.442Z,9.00
2022-11-04T16:06:34.908Z,9.00
2022-11-04T16:09:06.401Z,9.00
2022-11-04T16:11:34.939Z,9.00
2022-11-04T16:14:26.583Z,9.00
2022-11-04T16:16:55.614Z,9.10
2022-11-04T16:19:26.846Z,9.00
2022-11-04T16:22:09.090Z,9.00
2022-11-04T16:24:40.560Z,9.00
2022-11-04T16:27:10.821Z,9.00
2022-11-04T16:29:45.218Z,9.00
2022-11-04T16:32:18.704Z,8.90
2022-11-04T16:34:49.607Z,9.00
2022-11-04T16:37:17.876Z,8.90
2022-11-04T16:39:46.412Z,9.00
2022-11-04T16:42:16.028Z,8.90
2022-11-04T16:44:49.525Z,9.00
2022-11-04T16:47:19.744Z,9.00
2022-11-04T16:49:48.352Z,9.00
2022-11-04T16:52:25.491Z,9.00
2022-11-04T16:54:56.153Z,9.00
2022-11-04T16:57:25.606Z,9.00
2022-11-04T16:59:56.664Z,9.00
2022-11-04T17:02:28.158Z,9.00
2022-11-04T17:04:56.909Z,9.10
2022-11-04T17:07:40.672Z,9.00
2022-11-04T17:10:17.346Z,8.90
2022-11-04T17:12:45.964Z,9.00
2022-11-04T17:15:16.781Z,9.00
2022-11-04T17:17:45.403Z,9.00
2022-11-04T17:20:17.452Z,8.90
2022-11-04T17:22:47.017Z,8.90
2022-11-04T17:25:19.310Z,8.90
2022-11-04T17:27:48.402Z,8.80
2022-11-04T17:30:19.263Z,8.80
2022-11-04T17:32:48.123Z,8.80
2022-11-04T17:35:16.933Z,8.80
2022-11-04T17:37:45.208Z,8.80
2022-11-04T17:40:16.087Z,8.80
2022-11-04T17:43:04.385Z,8.80
2022-11-04T17:45:37.994Z,8.80
2022-11-04T17:48:06.642Z,8.70
2022-11-04T17:50:37.004Z,8.80
2022-11-04T17:53:05.353Z,8.80
2022-11-04T17:55:38.696Z,8.70
2022-11-04T17:58:06.940Z,8.70
2022-11-04T18:00:35.512Z,8.70
2022-11-04T18:03:06.782Z,8.70
2022-11-04T18:05:35.150Z,8.70
2022-11-04T18:08:04.059Z,8.60
2022-11-04T18:10:32.292Z,8.60
2022-11-04T18:12:59.321Z,8.70
2022-11-04T18:15:28.321Z,8.70
2022-11-04T18:17:57.336Z,8.70
2022-11-04T18:20:27.535Z,8.80
2022-11-04T18:22:55.690Z,8.80
2022-11-04T18:25:23.783Z,8.80
2022-11-04T18:27:51.950Z,8.80
2022-11-04T18:30:20.264Z,8.80
2022-11-04T18:32:48.321Z,8.80
2022-11-04T18:35:16.631Z,8.80
2022-11-04T18:37:47.601Z,8.80
2022-11-04T18:40:16.432Z,8.80
2022-11-04T18:42:44.635Z,8.80
2022-11-04T18:45:12.955Z,8.70
2022-11-04T18:47:41.081Z,8.70
2022-11-04T18:50:10.461Z,8.70
2022-11-04T18:52:38.551Z,8.70
2022-11-04T18:55:09.704Z,8.70
2022-11-04T18:57:37.868Z,8.70
2022-11-04T19:00:06.885Z,8.70
2022-11-04T19:02:35.142Z,8.80
2022-11-04T19:05:03.328Z,8.70
2022-11-04T19:07:31.463Z,8.80
2022-11-04T19:09:59.760Z,8.80
2022-11-04T19:12:46.566Z,8.80
2022-11-04T19:15:14.659Z,8.80
2022-11-04T19:17:42.668Z,8.80
2022-11-04T19:20:12.980Z,8.80
2022-11-04T19:22:42.345Z,8.80
2022-11-04T19:25:11.304Z,8.80
2022-11-04T19:27:40.966Z,8.80
2022-11-04T19:30:10.030Z,8.80
2022-11-04T19:32:38.687Z,8.80
2022-11-04T19:35:07.390Z,8.80
2022-11-04T19:37:35.466Z,8.80
2022-11-04T19:40:05.719Z,8.80
2022-11-04T19:42:51.937Z,8.80
2022-11-04T19:45:21.480Z,8.80
2022-11-04T19:47:49.641Z,8.80
2022-11-04T19:50:18.248Z,8.80
2022-11-04T19:52:46.428Z,8.80
2022-11-04T19:55:14.476Z,8.80
2022-11-04T19:57:43.304Z,8.90
2022-11-04T20:00:12.327Z,8.90
2022-11-04T20:02:41.851Z,8.90
2022-11-04T20:05:10.578Z,8.90
2022-11-04T20:07:39.488Z,8.90
2022-11-04T20:10:08.735Z,8.90
2022-11-04T20:12:55.133Z,8.90
2022-11-04T20:15:23.877Z,8.90
2022-11-04T20:17:53.358Z,8.90
2022-11-04T20:20:21.709Z,8.80
2022-11-04T20:22:49.823Z,8.80
2022-11-04T20:25:18.064Z,8.90
2022-11-04T20:27:46.109Z,8.90
2022-11-04T20:30:14.570Z,8.90
2022-11-04T20:32:42.566Z,8.90
2022-11-04T20:35:12.504Z,8.90
2022-11-04T20:37:40.623Z,9.00
2022-11-04T20:40:09.863Z,8.90
2022-11-04T20:42:38.201Z,8.90
2022-11-04T20:45:07.473Z,8.90
2022-11-04T20:47:36.950Z,8.90
2022-11-04T20:50:05.666Z,8.90
2022-11-04T20:52:36.632Z,8.80
2022-11-04T20:55:05.129Z,8.80
2022-11-04T20:57:33.730Z,8.80
2022-11-04T21:00:01.931Z,8.80
2022-11-04T21:02:30.079Z,8.80
2022-11-04T21:04:58.427Z,8.80
2022-11-04T21:07:26.775Z,8.80
2022-11-04T21:09:56.196Z,8.80
2022-11-04T21:12:24.429Z,8.80
2022-11-04T21:14:52.462Z,8.80
2022-11-04T21:17:20.657Z,8.80
2022-11-04T21:19:48.723Z,8.80
2022-11-04T21:22:16.901Z,8.80
2022-11-04T21:24:45.579Z,8.80
2022-11-04T21:27:15.130Z,8.80
2022-11-04T21:29:43.196Z,8.70
2022-11-04T21:32:11.597Z,8.60
2022-11-04T21:34:39.959Z,8.60
2022-11-04T21:37:08.066Z,8.60
2022-11-04T21:39:36.239Z,8.60
2022-11-04T21:42:04.549Z,8.70
2022-11-04T21:44:34.118Z,8.70
2022-11-04T21:47:02.159Z,8.70
2022-11-04T21:49:30.270Z,8.80
2022-11-04T21:51:58.362Z,8.80
2022-11-04T21:54:27.246Z,8.80
2022-11-04T21:56:55.278Z,8.80
2022-11-04T21:59:23.466Z,8.80
2022-11-04T22:01:53.125Z,8.80
2022-11-04T22:04:21.295Z,8.80
2022-11-04T22:06:49.565Z,8.80
2022-11-04T22:09:17.752Z,8.80
2022-11-04T22:11:46.017Z,8.80
2022-11-04T22:14:14.141Z,8.80
2022-11-04T22:16:42.380Z,8.80
2022-11-04T22:19:13.512Z,8.80
2022-11-04T22:21:43.042Z,8.80
2022-11-04T22:24:12.379Z,8.80
2022-11-04T22:26:40.457Z,8.80
2022-11-04T22:29:08.926Z,8.80
2022-11-04T22:31:38.695Z,8.80
2022-11-04T22:34:07.232Z,8.80
2022-11-04T22:36:36.848Z,8.80
2022-11-04T22:39:05.553Z,8.80
2022-11-04T22:41:34.392Z,8.80
2022-11-04T22:44:05.137Z,8.70
2022-11-04T22:46:35.152Z,8.80
2022-11-04T22:49:03.982Z,8.70
2022-11-04T22:51:32.569Z,8.70
2022-11-04T22:54:07.841Z,8.70
2022-11-04T22:56:36.667Z,8.70
2022-11-04T22:59:05.788Z,8.70
2022-11-04T23:01:34.302Z,8.70
2022-11-04T23:04:02.723Z,8.70
2022-11-04T23:06:31.131Z,8.70
2022-11-04T23:09:00.729Z,8.70
2022-11-04T23:11:49.629Z,8.70
2022-11-04T23:14:38.361Z,8.70
2022-11-04T23:17:32.210Z,8.70
2022-11-04T23:20:00.458Z,8.70
2022-11-04T23:22:46.060Z,8.70
2022-11-04T23:25:14.895Z,8.70
2022-11-04T23:28:05.237Z,8.60
2022-11-04T23:30:35.602Z,8.60
2022-11-04T23:33:05.773Z,8.60
2022-11-04T23:35:53.844Z,8.50
2022-11-04T23:38:22.289Z,8.60
2022-11-04T23:41:06.014Z,8.60
2022-11-04T23:43:36.134Z,8.60
2022-11-04T23:46:21.965Z,8.60
2022-11-04T23:49:22.477Z,8.70
2022-11-04T23:52:07.988Z,8.70
2022-11-04T23:54:53.320Z,8.70
2022-11-04T23:57:38.755Z,8.70
